Time,TemperatureF,DewpointF,PressureIn,WindDirection,WindDirectionDegrees,WindSpeedMPH,WindSpeedGustMPH,Humidity,HourlyPrecipIn,Conditions,Clouds,dailyrainin,SoftwareType,DateUTC
2013-08-03 00:02:00,59.0,57.0,29.93,North,0,1.0,3.0,94,0.00,,,0.07,,2013-08-03 04:02:00,
2013-08-03 00:43:00,57.0,55.0,29.94,North,0,0.0,3.0,94,0.00,,,0.06,,2013-08-03 04:43:00,
2013-08-03 00:53:00,57.0,56.0,29.94,North,0,0.0,3.0,95,0.00,,,0.06,,2013-08-03 04:53:00,
2013-08-03 01:02:00,57.0,56.0,29.94,North,0,0.0,3.0,95,0.00,,,0.06,,2013-08-03 05:02:00,
2013-08-03 01:42:00,56.0,55.0,29.94,North,0,3.0,3.0,96,0.00,,,0.06,,2013-08-03 05:42:00,
2013-08-03 02:02:00,56.0,55.0,29.94,East,91,2.0,4.0,97,0.00,,,0.05,,2013-08-03 06:02:00,
2013-08-03 02:12:00,56.0,55.0,29.94,East,91,1.0,4.0,96,0.00,,,0.05,,2013-08-03 06:12:00,
2013-08-03 02:42:00,55.0,54.0,29.94,East,91,1.0,3.0,98,0.01,,,0.06,,2013-08-03 06:42:00,
2013-08-03 02:52:00,55.0,54.0,29.94,East,91,2.0,3.0,98,0.01,,,0.06,,2013-08-03 06:52:00,
2013-08-03 03:02:00,55.0,54.0,29.94,East,91,3.0,3.0,98,0.01,,,0.06,,2013-08-03 07:02:00,
2013-08-03 03:12:00,55.0,54.0,29.94,SSE,156,2.0,4.0,98,0.01,,,0.06,,2013-08-03 07:12:00,
2013-08-03 03:22:00,55.0,54.0,29.94,SSE,156,2.0,4.0,98,0.01,,,0.06,,2013-08-03 07:22:00,
2013-08-03 03:32:00,55.0,54.0,29.94,SSE,156,4.0,4.0,98,0.01,,,0.06,,2013-08-03 07:32:00,
2013-08-03 03:43:00,55.0,54.0,29.94,South,173,3.0,5.0,98,0.01,,,0.06,,2013-08-03 07:43:00,
2013-08-03 03:52:00,54.0,53.0,29.95,South,172,2.0,3.0,98,0.00,,,0.05,,2013-08-03 07:52:00,
2013-08-03 04:02:00,54.0,53.0,29.95,South,172,2.0,3.0,98,0.00,,,0.05,,2013-08-03 08:02:00,
2013-08-03 04:22:00,54.0,53.0,29.95,South,169,3.0,4.0,98,0.00,,,0.05,,2013-08-03 08:22:00,
2013-08-03 04:32:00,54.0,53.0,29.95,SSE,168,3.0,4.0,97,0.00,,,0.05,,2013-08-03 08:32:00,
2013-08-03 04:43:00,54.0,53.0,29.96,SSE,168,2.0,4.0,97,0.00,,,0.05,,2013-08-03 08:43:00,
2013-08-03 04:52:00,54.0,53.0,29.96,SSE,168,2.0,4.0,97,0.00,,,0.05,,2013-08-03 08:52:00,
2013-08-03 05:02:00,54.0,53.0,29.96,South,169,3.0,3.0,98,0.00,,,0.05,,2013-08-03 09:02:00,
2013-08-03 05:12:00,54.0,53.0,29.96,South,169,3.0,3.0,98,0.00,,,0.05,,2013-08-03 09:12:00,
2013-08-03 05:22:00,53.0,52.0,29.96,South,170,2.0,4.0,97,0.00,,,0.05,,2013-08-03 09:22:00,
2013-08-03 05:32:00,53.0,52.0,29.97,South,170,2.0,4.0,97,0.00,,,0.05,,2013-08-03 09:32:00,
2013-08-03 05:43:00,53.0,52.0,29.96,South,170,2.0,4.0,97,0.00,,,0.05,,2013-08-03 09:43:00,
2013-08-03 05:53:00,53.0,52.0,29.97,South,170,1.0,3.0,97,0.00,,,0.05,,2013-08-03 09:53:00,
2013-08-03 06:02:00,53.0,52.0,29.97,South,170,1.0,3.0,97,0.00,,,0.05,,2013-08-03 10:02:00,
2013-08-03 06:12:00,53.0,52.0,29.98,South,170,0.0,3.0,97,0.00,,,0.05,,2013-08-03 10:12:00,
2013-08-03 06:32:00,52.0,51.0,29.97,South,170,2.0,4.0,97,0.00,,,0.05,,2013-08-03 10:32:00,
2013-08-03 06:42:00,52.0,51.0,29.98,South,170,0.0,3.0,97,0.00,,,0.05,,2013-08-03 10:42:00,
2013-08-03 06:53:00,52.0,51.0,29.98,South,170,0.0,3.0,97,0.00,,,0.05,,2013-08-03 10:53:00,
2013-08-03 07:02:00,52.0,51.0,29.98,South,170,2.0,3.0,97,0.00,,,0.05,,2013-08-03 11:02:00,
2013-08-03 07:32:00,52.0,51.0,29.99,South,170,1.0,3.0,97,0.00,,,0.04,,2013-08-03 11:32:00,
2013-08-03 07:43:00,53.0,52.0,29.99,South,171,2.0,3.0,97,0.00,,,0.04,,2013-08-03 11:43:00,
2013-08-03 07:53:00,53.0,52.0,29.99,West,260,0.0,3.0,97,0.00,,,0.04,,2013-08-03 11:53:00,
2013-08-03 08:12:00,55.0,54.0,30.00,SSW,212,0.0,2.0,98,0.00,,,0.04,,2013-08-03 12:12:00,
2013-08-03 08:33:00,56.0,55.0,30.00,SSW,206,1.0,2.0,98,0.00,,,0.04,,2013-08-03 12:33:00,
2013-08-03 08:52:00,58.0,57.0,30.01,WNW,285,2.0,3.0,98,0.00,,,0.04,,2013-08-03 12:52:00,
2013-08-03 09:02:00,58.0,57.0,30.01,WNW,285,2.0,3.0,98,0.00,,,0.04,,2013-08-03 13:02:00,
2013-08-03 09:12:00,61.0,60.0,30.01,ENE,65,2.0,4.0,97,0.00,,,0.04,,2013-08-03 13:12:00,
2013-08-03 09:22:00,61.0,60.0,30.00,SE,139,3.0,5.0,95,0.00,,,0.04,,2013-08-03 13:22:00,
2013-08-03 09:33:00,62.0,58.0,30.01,SE,129,5.0,10.0,86,0.00,,,0.04,,2013-08-03 13:33:00,
2013-08-03 09:43:00,62.0,58.0,30.01,SE,129,5.0,10.0,86,0.00,,,0.04,,2013-08-03 13:43:00,
2013-08-03 09:52:00,62.0,56.0,30.01,NNW,348,6.0,12.0,81,0.00,,,0.04,,2013-08-03 13:52:00,
2013-08-03 10:02:00,62.0,56.0,30.01,NNW,347,2.0,10.0,81,0.00,,,0.04,,2013-08-03 14:02:00,
2013-08-03 10:13:00,63.0,57.0,30.01,North,6,7.0,10.0,82,0.00,,,0.04,,2013-08-03 14:13:00,
2013-08-03 10:22:00,63.0,56.0,30.01,North,356,3.0,10.0,78,0.00,,,0.04,,2013-08-03 14:22:00,
2013-08-03 10:33:00,64.0,57.0,30.02,NW,326,3.0,12.0,79,0.00,,,0.04,,2013-08-03 14:33:00,
2013-08-03 10:42:00,64.0,57.0,30.01,North,359,3.0,12.0,77,0.00,,,0.04,,2013-08-03 14:42:00,
2013-08-03 10:52:00,64.0,56.0,30.02,East,99,8.0,11.0,74,0.00,,,0.03,,2013-08-03 14:52:00,
2013-08-03 11:02:00,63.0,56.0,30.02,NNW,342,5.0,11.0,77,0.00,,,0.03,,2013-08-03 15:02:00,
2013-08-03 11:12:00,63.0,55.0,30.03,North,355,7.0,14.0,76,0.00,,,0.03,,2013-08-03 15:12:00,
2013-08-03 11:23:00,63.0,54.0,30.03,NE,44,6.0,11.0,72,0.00,,,0.03,,2013-08-03 15:23:00,
2013-08-03 11:32:00,63.0,54.0,30.03,NE,44,6.0,11.0,72,0.00,,,0.03,,2013-08-03 15:32:00,
2013-08-03 11:43:00,63.0,54.0,30.03,NE,44,6.0,11.0,72,0.00,,,0.03,,2013-08-03 15:43:00,
2013-08-03 11:53:00,64.0,54.0,30.03,SSE,168,9.0,15.0,71,0.00,,,0.03,,2013-08-03 15:53:00,
2013-08-03 12:02:00,64.0,54.0,30.03,SE,133,6.0,14.0,70,0.00,,,0.03,,2013-08-03 16:02:00,
2013-08-03 12:12:00,64.0,53.0,30.04,South,185,5.0,14.0,68,0.00,,,0.03,,2013-08-03 16:12:00,
2013-08-03 12:23:00,64.0,54.0,30.04,South,173,3.0,14.0,69,0.00,,,0.03,,2013-08-03 16:23:00,
2013-08-03 12:33:00,65.0,54.0,30.04,SSE,157,12.0,12.0,68,0.00,,,0.03,,2013-08-03 16:33:00,
2013-08-03 12:43:00,64.0,54.0,30.04,South,172,6.0,14.0,71,0.00,,,0.03,,2013-08-03 16:43:00,
2013-08-03 12:53:00,65.0,54.0,30.04,SSE,157,3.0,15.0,68,0.00,,,0.03,,2013-08-03 16:53:00,
2013-08-03 13:03:00,64.0,54.0,30.05,South,186,2.0,15.0,70,0.00,,,0.03,,2013-08-03 17:03:00,
2013-08-03 13:12:00,64.0,54.0,30.05,South,186,2.0,15.0,70,0.00,,,0.03,,2013-08-03 17:12:00,
2013-08-03 13:22:00,64.0,54.0,30.05,South,187,9.0,13.0,69,0.01,,,0.04,,2013-08-03 17:22:00,
2013-08-03 13:32:00,64.0,54.0,30.05,South,187,9.0,13.0,69,0.01,,,0.04,,2013-08-03 17:32:00,
2013-08-03 13:43:00,64.0,54.0,30.05,South,187,9.0,13.0,69,0.01,,,0.04,,2013-08-03 17:43:00,
2013-08-03 13:52:00,64.0,55.0,30.06,East,82,8.0,9.0,72,0.01,,,0.04,,2013-08-03 17:52:00,
2013-08-03 14:02:00,64.0,55.0,30.06,ESE,110,6.0,10.0,72,0.01,,,0.04,,2013-08-03 18:02:00,
2013-08-03 14:12:00,65.0,56.0,30.06,SE,128,4.0,11.0,73,0.01,,,0.04,,2013-08-03 18:12:00,
2013-08-03 14:22:00,65.0,56.0,30.06,SSW,200,5.0,11.0,73,0.01,,,0.03,,2013-08-03 18:22:00,
2013-08-03 14:32:00,65.0,56.0,30.06,SSW,194,8.0,12.0,72,0.00,,,0.03,,2013-08-03 18:32:00,
2013-08-03 14:43:00,65.0,55.0,30.07,SSE,168,3.0,12.0,71,0.00,,,0.03,,2013-08-03 18:43:00,
2013-08-03 14:53:00,64.0,55.0,30.07,SSE,161,6.0,14.0,73,0.00,,,0.03,,2013-08-03 18:53:00,
2013-08-03 15:03:00,65.0,56.0,30.07,South,180,3.0,14.0,72,0.00,,,0.03,,2013-08-03 19:03:00,
2013-08-03 15:12:00,65.0,55.0,30.07,South,189,11.0,14.0,70,0.00,,,0.03,,2013-08-03 19:12:00,
2013-08-03 15:22:00,65.0,55.0,30.07,South,188,9.0,10.0,71,0.00,,,0.03,,2013-08-03 19:22:00,
2013-08-03 15:32:00,65.0,55.0,30.07,NE,51,7.0,11.0,71,0.00,,,0.03,,2013-08-03 19:32:00,
2013-08-03 15:43:00,65.0,54.0,30.07,South,189,5.0,16.0,68,0.00,,,0.03,,2013-08-03 19:43:00,
2013-08-03 15:52:00,65.0,54.0,30.07,SSE,163,7.0,16.0,68,0.00,,,0.03,,2013-08-03 19:52:00,
2013-08-03 16:02:00,65.0,54.0,30.07,SSE,163,7.0,16.0,68,0.00,,,0.03,,2013-08-03 20:02:00,
2013-08-03 16:12:00,66.0,56.0,30.06,SSW,196,6.0,12.0,69,0.00,,,0.03,,2013-08-03 20:12:00,
2013-08-03 16:22:00,66.0,56.0,30.07,North,7,6.0,9.0,69,0.00,,,0.03,,2013-08-03 20:22:00,
2013-08-03 16:32:00,66.0,56.0,30.07,North,7,6.0,9.0,69,0.00,,,0.03,,2013-08-03 20:32:00,
2013-08-03 16:42:00,65.0,55.0,30.06,SSE,165,5.0,12.0,71,0.00,,,0.03,,2013-08-03 20:42:00,
2013-08-03 16:52:00,65.0,55.0,30.06,SE,138,6.0,10.0,71,0.00,,,0.03,,2013-08-03 20:52:00,
2013-08-03 17:02:00,65.0,55.0,30.07,North,0,4.0,10.0,71,0.00,,,0.03,,2013-08-03 21:02:00,
2013-08-03 17:12:00,65.0,56.0,30.06,SSW,197,6.0,10.0,72,0.00,,,0.03,,2013-08-03 21:12:00,
2013-08-03 17:22:00,65.0,55.0,30.07,SSW,202,4.0,10.0,71,0.00,,,0.02,,2013-08-03 21:22:00,
2013-08-03 17:32:00,65.0,56.0,30.07,ENE,71,9.0,10.0,72,0.00,,,0.02,,2013-08-03 21:32:00,
2013-08-03 17:42:00,65.0,56.0,30.08,North,10,4.0,10.0,74,0.00,,,0.02,,2013-08-03 21:42:00,
2013-08-03 17:52:00,65.0,56.0,30.08,SSW,200,4.0,7.0,72,0.00,,,0.02,,2013-08-03 21:52:00,
2013-08-03 18:02:00,65.0,56.0,30.07,South,175,3.0,7.0,74,0.00,,,0.02,,2013-08-03 22:02:00,
2013-08-03 18:12:00,65.0,56.0,30.08,South,189,3.0,7.0,73,0.00,,,0.02,,2013-08-03 22:12:00,
2013-08-03 18:22:00,65.0,56.0,30.07,SSW,213,4.0,7.0,72,0.00,,,0.02,,2013-08-03 22:22:00,
2013-08-03 18:33:00,65.0,56.0,30.07,NNE,19,5.0,7.0,73,0.00,,,0.02,,2013-08-03 22:33:00,
2013-08-03 18:43:00,65.0,56.0,30.07,NNE,19,5.0,7.0,73,0.00,,,0.02,,2013-08-03 22:43:00,
2013-08-03 18:52:00,65.0,56.0,30.07,NNE,19,5.0,7.0,73,0.00,,,0.02,,2013-08-03 22:52:00,
2013-08-03 19:02:00,67.0,57.0,30.07,SSE,163,3.0,8.0,71,0.00,,,0.02,,2013-08-03 23:02:00,
2013-08-03 19:12:00,67.0,56.0,30.07,NNE,28,3.0,8.0,69,0.00,,,0.02,,2013-08-03 23:12:00,
2013-08-03 19:22:00,67.0,56.0,30.07,SSE,152,4.0,8.0,69,0.00,,,0.02,,2013-08-03 23:22:00,
2013-08-03 19:32:00,67.0,56.0,30.07,SSE,167,1.0,8.0,69,0.00,,,0.02,,2013-08-03 23:32:00,
2013-08-03 19:43:00,67.0,56.0,30.07,South,179,5.0,8.0,69,0.00,,,0.02,,2013-08-03 23:43:00,
2013-08-03 19:52:00,67.0,57.0,30.07,South,179,0.0,8.0,71,0.00,,,0.02,,2013-08-03 23:52:00,
2013-08-03 20:03:00,67.0,57.0,30.07,South,179,0.0,8.0,71,0.00,,,0.02,,2013-08-04 00:03:00,
2013-08-03 20:12:00,64.0,55.0,30.07,SE,128,1.0,8.0,73,0.01,,,0.03,,2013-08-04 00:12:00,
2013-08-03 20:22:00,64.0,56.0,30.08,SSE,148,3.0,6.0,74,0.01,,,0.03,,2013-08-04 00:22:00,
2013-08-03 20:32:00,64.0,56.0,30.08,WSW,253,0.0,9.0,74,0.01,,,0.03,,2013-08-04 00:32:00,
2013-08-03 20:42:00,63.0,55.0,30.08,NNW,348,2.0,9.0,76,0.21,,,0.23,,2013-08-04 00:42:00,
2013-08-03 20:53:00,63.0,55.0,30.08,NNW,348,2.0,9.0,76,0.21,,,0.23,,2013-08-04 00:53:00,
2013-08-03 21:02:00,63.0,55.0,30.08,NNW,327,1.0,6.0,76,0.21,,,0.23,,2013-08-04 01:02:00,
2013-08-03 21:12:00,63.0,55.0,30.08,NNW,327,1.0,6.0,76,0.21,,,0.23,,2013-08-04 01:12:00,
2013-08-03 21:22:00,63.0,56.0,30.08,NNW,328,5.0,6.0,77,0.21,,,0.23,,2013-08-04 01:22:00,
2013-08-03 21:32:00,63.0,56.0,30.08,NNW,327,1.0,6.0,78,0.21,,,0.23,,2013-08-04 01:32:00,
2013-08-03 21:42:00,63.0,56.0,30.08,NNW,327,1.0,6.0,78,0.21,,,0.23,,2013-08-04 01:42:00,
2013-08-03 21:53:00,62.0,54.0,30.09,North,1,7.0,15.0,74,0.20,,,0.23,,2013-08-04 01:53:00,
2013-08-03 22:03:00,62.0,54.0,30.09,North,357,8.0,12.0,75,0.00,,,0.23,,2013-08-04 02:03:00,
2013-08-03 22:12:00,62.0,54.0,30.09,North,357,8.0,12.0,75,0.00,,,0.23,,2013-08-04 02:12:00,
2013-08-03 22:22:00,62.0,54.0,30.09,North,3,8.0,13.0,75,0.00,,,0.23,,2013-08-04 02:22:00,
2013-08-03 22:32:00,62.0,54.0,30.09,North,3,8.0,13.0,75,0.00,,,0.23,,2013-08-04 02:32:00,
2013-08-03 22:42:00,62.0,54.0,30.10,North,11,4.0,13.0,74,0.00,,,0.23,,2013-08-04 02:42:00,
2013-08-03 22:52:00,60.0,53.0,30.10,North,353,3.0,7.0,77,0.00,,,0.23,,2013-08-04 02:52:00,
2013-08-03 23:02:00,60.0,53.0,30.10,North,357,6.0,12.0,77,0.00,,,0.23,,2013-08-04 03:02:00,
2013-08-03 23:10:00,61.0,53.0,30.10,NNE,18,8.0,12.0,76,0.00,,,0.23,,2013-08-04 03:10:00,
2013-08-03 23:12:00,60.0,53.0,30.10,North,357,6.0,12.0,77,0.00,,,0.23,,2013-08-04 03:12:00,
2013-08-03 23:22:00,60.0,53.0,30.10,North,357,6.0,12.0,77,0.00,,,0.23,,2013-08-04 03:22:00,
2013-08-03 23:32:00,61.0,53.0,30.10,NNE,18,8.0,12.0,76,0.00,,,0.23,,2013-08-04 03:32:00,
2013-08-03 23:42:00,61.0,53.0,30.10,NNE,18,8.0,12.0,76,0.00,,,0.23,,2013-08-04 03:42:00,
2013-08-03 23:52:00,61.0,53.0,30.10,NNE,18,8.0,12.0,76,0.00,,,0.23,,2013-08-04 03:52:00,